Time;durP1;ratioP1;P1;durP2;ratioP2;P2;SDS_P1;SDS_P2;PMS_P1;PMS_P2;Temp;Humidity;BMP_temperature;BMP_pressure;BME280_temperature;BME280_humidity;BME280_pressure;Samples;Min_cycle;Max_cycle;Signal;HPM_P1;HPM_P2
2022/09/14 00:00:31;;;;;;;4.78;4.00;;;;;;;12.29;84.80;98558.38;5089281;28;20040;-58
2022/09/14 00:02:57;;;;;;;5.65;3.95;;;;;;;12.30;84.68;98564.38;5086498;28;20044;-58
2022/09/14 00:05:23;;;;;;;6.78;3.90;;;;;;;12.30;85.00;98565.22;5087142;28;20405;-55
2022/09/14 00:07:49;;;;;;;4.10;3.58;;;;;;;12.22;84.84;98551.84;5066439;28;20677;-54
2022/09/14 00:10:15;;;;;;;6.55;5.50;;;;;;;12.28;85.34;98572.31;5085825;28;20465;-57
2022/09/14 00:12:41;;;;;;;5.95;3.90;;;;;;;12.27;85.39;98548.94;5077237;28;20045;-57
2022/09/14 00:15:07;;;;;;;5.10;4.10;;;;;;;12.28;85.41;98561.06;5085702;28;20411;-56
2022/09/14 00:17:33;;;;;;;4.72;3.55;;;;;;;12.21;85.44;98536.28;5085038;28;20504;-56
2022/09/14 00:20:01;;;;;;;6.18;3.92;;;;;;;12.33;86.29;98553.81;5086108;28;20046;-56
2022/09/14 00:22:29;;;;;;;4.72;4.18;;;;;;;12.28;86.13;98537.59;5082532;28;20163;-57
2022/09/14 00:24:56;;;;;;;6.28;4.18;;;;;;;12.32;86.25;98547.75;5085732;28;20036;-58
2022/09/14 00:27:22;;;;;;;4.82;4.07;;;;;;;12.31;85.97;98542.63;5086107;28;20529;-57
2022/09/14 00:29:47;;;;;;;6.82;3.88;;;;;;;12.31;86.22;98542.63;5086328;28;20044;-56
2022/09/14 00:32:13;;;;;;;4.72;3.67;;;;;;;12.25;86.40;98525.59;5080914;28;20542;-54
2022/09/14 00:34:39;;;;;;;4.07;3.60;;;;;;;12.30;86.87;98531.34;5075751;28;20137;-55
2022/09/14 00:37:05;;;;;;;5.72;3.95;;;;;;;12.14;86.83;98504.53;5086197;28;20519;-54
2022/09/14 00:39:30;;;;;;;4.45;3.83;;;;;;;12.32;87.25;98536.47;5078778;28;20041;-57
2022/09/14 00:41:57;;;;;;;4.72;3.95;;;;;;;12.29;87.34;98529.69;5083771;28;20462;-56
2022/09/14 00:44:22;;;;;;;5.82;3.92;;;;;;;12.32;87.67;98533.88;5088901;28;20070;-59
2022/09/14 00:46:51;;;;;;;5.30;4.60;;;;;;;12.31;87.97;98525.22;5081877;28;20068;-57
2022/09/14 00:49:42;;;;;;;4.30;3.85;;;;;;;12.31;88.42;98527.81;5083171;28;20044;-55
2022/09/14 00:52:11;;;;;;;6.18;3.90;;;;;;;12.30;88.19;98525.31;5076670;28;20041;-57
2022/09/14 00:54:42;;;;;;;4.72;4.25;;;;;;;12.29;88.32;98523.66;5089966;28;20040;-56
2022/09/14 00:57:08;;;;;;;5.22;4.30;;;;;;;12.30;88.92;98517.47;5073960;28;20122;-57
2022/09/14 00:59:37;;;;;;;5.03;4.53;;;;;;;12.32;89.38;98518.25;5089234;28;20044;-57
2022/09/14 01:02:04;;;;;;;5.90;4.10;;;;;;;12.31;89.14;98520.00;5091019;28;20050;-54
2022/09/14 01:04:30;;;;;;;5.03;4.05;;;;;;;12.32;89.41;98516.47;5092049;28;20074;-57
2022/09/14 01:07:17;;;;;;;6.05;4.43;;;;;;;12.27;89.86;98508.09;5091133;28;20499;-56
2022/09/14 01:10:13;;;;;;;5.60;4.80;;;;;;;12.30;89.56;98510.50;5089185;28;20044;-59
2022/09/14 01:12:39;;;;;;;5.20;4.65;;;;;;;12.18;89.47;98473.94;5105312;28;20043;-57
2022/09/14 01:15:13;;;;;;;4.95;4.05;;;;;;;12.34;89.76;98510.34;5088723;28;20396;-56
2022/09/14 01:17:52;;;;;;;5.38;4.13;;;;;;;12.32;89.99;98505.22;5086590;28;20040;-55
2022/09/14 01:20:25;;;;;;;5.68;4.63;;;;;;;12.12;89.45;98469.94;5116101;27;20044;-59
2022/09/14 01:23:05;;;;;;;4.85;4.35;;;;;;;12.28;90.00;98506.34;5088636;28;20078;-51
2022/09/14 01:25:53;;;;;;;8.57;4.78;;;;;;;12.30;90.20;98504.44;5074299;28;20143;-53
2022/09/14 01:28:36;;;;;;;5.40;4.25;;;;;;;12.30;89.90;98494.88;5090759;28;20068;-56
2022/09/14 01:31:08;;;;;;;5.20;4.10;;;;;;;12.35;90.15;98501.59;5063248;28;20090;-58
2022/09/14 01:33:41;;;;;;;6.25;4.00;;;;;;;12.02;89.76;98445.38;5083850;28;20057;-52
2022/09/14 01:36:09;;;;;;;5.22;4.07;;;;;;;12.36;89.79;98498.03;5095330;28;20538;-52
2022/09/14 01:38:39;;;;;;;5.00;4.50;;;;;;;12.40;89.88;98494.34;5081802;28;20044;-57
2022/09/14 01:41:10;;;;;;;5.38;4.47;;;;;;;12.37;89.68;98490.13;5120061;27;20393;-51
2022/09/14 01:43:42;;;;;;;5.20;4.70;;;;;;;12.42;89.72;98492.47;5122110;27;20028;-54
2022/09/14 01:46:17;;;;;;;4.78;4.30;;;;;;;12.44;89.84;98490.59;5089729;28;20036;-57
2022/09/14 01:49:01;;;;;;;6.38;4.60;;;;;;;12.45;89.78;98479.25;5078632;28;20048;-58
2022/09/14 01:51:39;;;;;;;5.05;4.30;;;;;;;12.29;90.02;98461.94;5083333;28;20415;-56
2022/09/14 01:54:22;;;;;;;4.57;3.72;;;;;;;12.41;89.65;98481.19;5088368;28;20503;-57
2022/09/14 01:56:52;;;;;;;5.05;4.50;;;;;;;12.24;89.45;98439.72;5072867;28;20135;-57
2022/09/14 01:59:23;;;;;;;4.47;4.03;;;;;;;12.14;89.59;98422.97;5087161;28;20078;-57
2022/09/14 02:01:59;;;;;;;4.85;4.35;;;;;;;12.39;90.23;98464.81;5087386;28;20047;-59
2022/09/14 02:04:45;;;;;;;5.90;4.15;;;;;;;12.43;90.64;98460.25;5085567;28;20049;-57
2022/09/14 02:07:11;;;;;;;6.20;4.10;;;;;;;12.45;90.47;98458.41;5108864;27;20048;-58
2022/09/14 02:09:37;;;;;;;4.30;3.90;;;;;;;12.46;90.82;98457.44;5104678;28;20050;-59
2022/09/14 02:12:04;;;;;;;5.10;4.47;;;;;;;12.44;90.97;98460.16;5101695;28;20067;-57
2022/09/14 02:14:30;;;;;;;4.80;4.30;;;;;;;12.44;91.46;98456.72;5092860;28;20051;-58
2022/09/14 02:16:56;;;;;;;5.32;4.78;;;;;;;12.25;91.40;98428.31;5099137;28;20036;-58
2022/09/14 02:19:24;;;;;;;5.00;3.90;;;;;;;12.42;91.79;98458.56;5082238;28;20071;-59
2022/09/14 02:21:50;;;;;;;4.72;4.00;;;;;;;12.37;91.38;98453.66;5084512;28;20159;-57
2022/09/14 02:24:16;;;;;;;6.10;4.60;;;;;;;12.34;91.72;98453.84;5089053;28;20564;-54
2022/09/14 02:26:42;;;;;;;5.47;4.28;;;;;;;12.34;92.21;98453.84;5088938;28;20071;-56
2022/09/14 02:29:08;;;;;;;5.90;4.82;;;;;;;12.21;92.32;98430.28;5071495;28;20071;-57
2022/09/14 02:31:55;;;;;;;5.38;4.63;;;;;;;12.37;92.80;98451.03;5087661;28;20044;-57
2022/09/14 02:34:39;;;;;;;5.25;4.55;;;;;;;12.38;92.72;98454.47;5088839;28;20048;-56
2022/09/14 02:37:20;;;;;;;6.60;4.20;;;;;;;12.38;92.62;98441.47;5090516;28;20087;-56
2022/09/14 02:40:08;;;;;;;5.18;4.68;;;;;;;12.38;93.25;98442.28;5089887;28;20040;-56
2022/09/14 02:42:40;;;;;;;7.30;4.65;;;;;;;12.41;92.69;98444.69;5086594;28;20062;-58
2022/09/14 02:45:06;;;;;;;6.13;4.55;;;;;;;12.43;92.89;98444.63;5078530;28;20100;-56
2022/09/14 02:47:48;;;;;;;6.05;4.60;;;;;;;12.45;92.84;98442.75;5088590;28;20048;-55
2022/09/14 02:50:26;;;;;;;5.15;4.65;;;;;;;12.45;92.99;98440.16;5087301;28;20527;-56
2022/09/14 02:53:03;;;;;;;5.80;4.95;;;;;;;12.41;93.03;98436.03;5089022;28;20036;-55
2022/09/14 02:55:36;;;;;;;6.25;4.80;;;;;;;12.37;92.69;98443.22;5057094;28;20039;-57
2022/09/14 02:58:08;;;;;;;5.95;5.13;;;;;;;12.37;93.08;98434.56;5081131;28;20469;-60
2022/09/14 03:00:45;;;;;;;7.68;5.13;;;;;;;12.35;93.56;98436.44;5087503;28;20048;-53
2022/09/14 03:03:14;;;;;;;6.82;4.70;;;;;;;12.35;93.63;98426.03;5088753;28;20036;-54
2022/09/14 03:05:40;;;;;;;4.97;4.47;;;;;;;12.34;93.47;98430.38;5088161;28;20051;-57
2022/09/14 03:08:07;;;;;;;7.38;5.50;;;;;;;12.32;93.17;98427.03;5084234;28;20040;-55
2022/09/14 03:10:33;;;;;;;6.47;5.40;;;;;;;12.34;93.23;98421.72;5087891;28;20084;-58
2022/09/14 03:12:59;;;;;;;7.07;5.22;;;;;;;12.35;93.55;98418.19;5088343;28;20044;-55
2022/09/14 03:15:26;;;;;;;9.85;7.40;;;;;;;12.37;93.38;98417.16;5088268;28;20507;-50
2022/09/14 03:17:52;;;;;;;6.18;5.20;;;;;;;12.43;93.66;98423.75;5070498;28;20043;-55
2022/09/14 03:20:42;;;;;;;7.32;5.00;;;;;;;12.41;93.75;98413.44;5088126;28;20042;-54
2022/09/14 03:23:09;;;;;;;6.50;4.93;;;;;;;12.37;93.32;98424.13;5089120;28;20077;-55
2022/09/14 03:25:42;;;;;;;6.55;5.28;;;;;;;12.39;93.50;98410.09;5089527;28;20044;-54
2022/09/14 03:28:10;;;;;;;6.13;4.68;;;;;;;12.42;93.83;98414.25;5087977;28;20089;-56
2022/09/14 03:30:36;;;;;;;6.97;4.80;;;;;;;12.39;94.00;98402.28;5084745;28;20047;-57
2022/09/14 03:33:02;;;;;;;6.18;5.38;;;;;;;12.32;94.16;98404.41;5055133;28;20039;-57
2022/09/14 03:35:30;;;;;;;5.63;4.72;;;;;;;12.37;94.11;98405.91;5089788;28;20039;-56
2022/09/14 03:37:56;;;;;;;5.53;4.50;;;;;;;12.39;94.25;98412.69;5089863;28;20562;-56
2022/09/14 03:40:22;;;;;;;7.35;4.88;;;;;;;12.33;93.69;98400.03;5088749;28;20066;-54
2022/09/14 03:42:49;;;;;;;7.95;4.90;;;;;;;12.36;94.12;98406.81;5085077;28;20503;-57
2022/09/14 03:45:16;;;;;;;7.68;5.32;;;;;;;12.36;94.72;98394.63;5069490;28;20040;-53
2022/09/14 03:47:42;;;;;;;6.57;5.40;;;;;;;12.43;94.81;98400.31;5081972;28;20511;-54
2022/09/14 03:50:09;;;;;;;9.07;6.45;;;;;;;12.47;94.72;98393.97;5068517;28;20040;-54
2022/09/14 03:52:36;;;;;;;5.28;4.55;;;;;;;12.49;94.68;98405.97;5068203;28;20032;-57
2022/09/14 03:55:04;;;;;;;6.78;4.47;;;;;;;12.50;94.81;98397.22;5081091;28;20119;-60
2022/09/14 03:57:30;;;;;;;7.10;4.85;;;;;;;12.49;94.71;98397.31;5089286;28;20044;-59
2022/09/14 03:59:56;;;;;;;7.88;5.07;;;;;;;12.48;95.18;98398.25;5075678;28;20085;-53
2022/09/14 04:02:22;;;;;;;7.53;5.15;;;;;;;12.50;95.05;98396.41;5069250;28;20430;-58
2022/09/14 04:04:48;;;;;;;7.00;5.07;;;;;;;12.51;95.18;98398.06;5098001;28;20522;-57
2022/09/14 04:07:14;;;;;;;8.15;5.30;;;;;;;12.54;95.14;98397.88;5070438;28;20044;-57
2022/09/14 04:09:41;;;;;;;6.47;5.05;;;;;;;12.50;94.79;98396.41;5087279;28;20048;-58
2022/09/14 04:12:07;;;;;;;8.82;5.78;;;;;;;12.50;94.89;98399.84;5088754;28;20051;-57
2022/09/14 04:14:33;;;;;;;9.20;6.68;;;;;;;12.24;95.13;98369.34;5076889;28;20043;-55
2022/09/14 04:16:59;;;;;;;11.45;6.35;;;;;;;12.38;95.13;98394.53;5094507;28;20051;-55
2022/09/14 04:19:24;;;;;;;9.63;6.65;;;;;;;12.13;95.60;98359.59;5079148;28;20067;-59
2022/09/14 04:21:50;;;;;;;9.32;6.20;;;;;;;12.32;95.55;98396.59;5086134;28;20143;-58
2022/09/14 04:24:16;;;;;;;9.85;7.03;;;;;;;12.20;96.49;98397.34;5087516;28;20047;-59
2022/09/14 04:26:43;;;;;;;10.43;7.47;;;;;;;12.24;96.74;98388.44;5079995;28;20052;-59
2022/09/14 04:29:10;;;;;;;9.70;6.97;;;;;;;12.27;96.41;98390.84;5088432;28;20047;-57
2022/09/14 04:31:36;;;;;;;8.55;7.18;;;;;;;12.04;96.51;98349.72;5089205;28;20541;-59
2022/09/14 04:34:02;;;;;;;11.25;7.57;;;;;;;12.30;97.06;98390.63;5089025;28;20538;-57
2022/09/14 04:36:29;;;;;;;10.85;7.75;;;;;;;12.17;96.88;98362.84;5088163;28;20036;-58
2022/09/14 04:38:58;;;;;;;11.35;7.78;;;;;;;12.39;97.08;98396.22;5069967;28;20036;-58
2022/09/14 04:41:24;;;;;;;11.00;8.02;;;;;;;12.25;96.82;98373.59;5067767;28;20048;-58
2022/09/14 04:43:51;;;;;;;10.65;8.15;;;;;;;12.44;96.85;98394.16;5085830;28;20086;-57
2022/09/14 04:46:22;;;;;;;14.70;8.90;;;;;;;12.49;96.83;98394.72;5086720;28;20051;-60
2022/09/14 04:48:48;;;;;;;13.95;8.75;;;;;;;12.59;96.69;98391.44;5086299;28;20191;-59
2022/09/14 04:51:17;;;;;;;11.80;8.80;;;;;;;12.70;96.44;98385.53;5087584;28;20036;-57
2022/09/14 04:53:48;;;;;;;14.18;9.10;;;;;;;12.86;96.38;98393.22;5086372;28;20040;-59
2022/09/14 04:56:15;;;;;;;12.98;9.18;;;;;;;12.92;95.55;98385.00;5083667;28;20078;-54
2022/09/14 04:58:47;;;;;;;12.20;8.52;;;;;;;12.95;95.03;98397.84;5086348;28;20050;-57
2022/09/14 05:01:14;;;;;;;14.50;8.77;;;;;;;12.90;94.77;98395.53;5087368;28;20511;-54
2022/09/14 05:03:41;;;;;;;11.70;8.98;;;;;;;12.84;94.19;98367.22;5086518;28;20041;-58
2022/09/14 05:06:15;;;;;;;9.40;7.65;;;;;;;13.20;94.10;98405.78;5087876;28;20044;-60
2022/09/14 05:08:42;;;;;;;10.18;8.00;;;;;;;13.10;92.42;98392.47;5068208;28;20411;-58
2022/09/14 05:11:09;;;;;;;12.25;9.10;;;;;;;13.00;92.18;98399.22;5087185;28;20131;-56
2022/09/14 05:13:35;;;;;;;12.45;8.70;;;;;;;12.87;91.95;98394.91;5075914;28;20048;-59
2022/09/14 05:16:17;;;;;;;12.27;9.43;;;;;;;12.91;91.75;98396.38;5077444;28;20522;-59
2022/09/14 05:18:43;;;;;;;14.45;8.95;;;;;;;12.91;91.70;98404.19;5087201;28;20526;-59
2022/09/14 05:21:13;;;;;;;12.32;8.82;;;;;;;12.88;92.00;98399.16;5087411;28;20098;-59
2022/09/14 05:23:39;;;;;;;15.68;9.27;;;;;;;12.92;91.59;98400.66;5087375;28;20036;-59
2022/09/14 05:26:05;;;;;;;18.15;9.73;;;;;;;12.98;91.30;98410.69;5087815;28;20038;-58
2022/09/14 05:28:31;;;;;;;13.00;9.85;;;;;;;13.09;91.34;98401.22;5083127;28;20164;-59
2022/09/14 05:30:57;;;;;;;12.68;9.00;;;;;;;13.13;90.79;98386.25;5087058;28;20526;-60
2022/09/14 05:33:23;;;;;;;15.98;11.38;;;;;;;13.25;90.29;98372.38;5083980;28;20044;-60
2022/09/14 05:35:50;;;;;;;14.73;9.02;;;;;;;13.59;89.58;98399.72;5085852;28;20037;-58
2022/09/14 05:38:16;;;;;;;11.50;8.15;;;;;;;13.59;88.79;98404.94;5078040;28;20059;-58
2022/09/14 05:40:42;;;;;;;10.73;8.45;;;;;;;13.52;88.02;98381.00;5091489;28;20465;-60
2022/09/14 05:43:09;;;;;;;11.40;8.55;;;;;;;13.77;87.38;98413.28;5091656;28;20075;-58
2022/09/14 05:45:35;;;;;;;9.57;7.60;;;;;;;13.80;86.73;98406.09;5085063;28;20079;-57
2022/09/14 05:48:05;;;;;;;12.05;8.93;;;;;;;13.72;86.39;98404.94;5100289;28;20155;-58
2022/09/14 05:50:32;;;;;;;13.32;8.90;;;;;;;13.74;86.03;98400.44;5098623;28;20048;-57
2022/09/14 05:52:58;;;;;;;11.18;8.63;;;;;;;13.61;85.40;98368.28;5101260;28;20047;-56
2022/09/14 05:55:24;;;;;;;11.95;9.48;;;;;;;13.66;85.34;98368.81;5092793;28;20085;-59
2022/09/14 05:57:50;;;;;;;10.25;8.88;;;;;;;13.65;85.01;98367.97;5092197;28;20507;-59
2022/09/14 06:00:17;;;;;;;19.67;14.90;;;;;;;13.78;84.98;98388.84;5091284;28;20069;-54
2022/09/14 06:02:47;;;;;;;12.27;8.82;;;;;;;13.70;84.84;98386.78;5082113;28;20044;-54
2022/09/14 06:05:14;;;;;;;13.95;9.25;;;;;;;13.58;84.77;98392.81;5085673;28;20112;-60
2022/09/14 06:07:40;;;;;;;14.73;9.60;;;;;;;13.31;84.90;98358.09;5088115;28;20040;-54
2022/09/14 06:10:06;;;;;;;14.75;9.68;;;;;;;13.47;85.22;98388.31;5084592;28;20097;-56
2022/09/14 06:12:32;;;;;;;15.30;10.30;;;;;;;13.44;85.37;98387.69;5086881;28;20040;-61
2022/09/14 06:14:58;;;;;;;14.98;10.32;;;;;;;13.50;85.39;98387.28;5071584;28;20031;-62
2022/09/14 06:17:24;;;;;;;14.07;9.73;;;;;;;13.45;85.46;98387.56;5089907;28;20468;-61
2022/09/14 06:19:50;;;;;;;13.50;10.32;;;;;;;13.20;85.53;98357.97;5089236;28;20048;-60
2022/09/14 06:22:16;;;;;;;14.95;10.88;;;;;;;13.36;85.64;98396.00;5088927;28;20040;-59
2022/09/14 06:24:41;;;;;;;13.70;9.98;;;;;;;13.35;85.88;98393.50;5089771;28;20422;-65
2022/09/14 06:27:11;;;;;;;12.80;9.07;;;;;;;13.28;86.22;98387.03;5071959;28;20182;-57
2022/09/14 06:29:36;;;;;;;;;;;;;;;13.31;86.03;98392.03;5097371;28;20131;-53
2022/09/14 06:32:02;;;;;;;13.43;8.10;;;;;;;13.25;85.88;98390.66;5083926;28;20367;-59
2022/09/14 06:34:29;;;;;;;12.60;8.40;;;;;;;13.23;85.82;98386.47;5090701;28;20624;-65
2022/09/14 06:36:55;;;;;;;12.48;8.88;;;;;;;13.25;85.78;98392.44;5087654;28;20490;-57
2022/09/14 06:39:21;;;;;;;10.55;8.30;;;;;;;12.97;85.92;98344.66;5084643;28;20112;-59
2022/09/14 06:41:47;;;;;;;11.27;8.75;;;;;;;13.18;85.51;98383.34;5089969;28;20510;-57
2022/09/14 06:44:18;;;;;;;11.55;8.88;;;;;;;13.21;85.83;98386.56;5088828;28;20412;-58
2022/09/14 06:46:44;;;;;;;12.20;9.30;;;;;;;13.19;85.94;98385.81;5089421;28;20040;-58
2022/09/14 06:49:12;;;;;;;13.18;9.35;;;;;;;13.15;85.59;98384.38;5071847;28;20126;-58
2022/09/14 06:51:40;;;;;;;12.48;9.05;;;;;;;13.13;85.75;98391.47;5089082;28;20032;-59
2022/09/14 06:54:06;;;;;;;13.90;9.05;;;;;;;13.11;86.25;98381.13;5085516;28;20095;-60
2022/09/14 06:56:37;;;;;;;11.02;9.02;;;;;;;12.88;85.89;98339.16;5078327;28;20040;-61
2022/09/14 06:59:08;;;;;;;13.60;9.30;;;;;;;13.30;85.76;98391.19;5084350;28;20036;-59
2022/09/14 07:01:33;;;;;;;9.82;8.13;;;;;;;13.42;85.44;98382.56;5087566;28;20469;-60
2022/09/14 07:04:00;;;;;;;10.07;8.38;;;;;;;13.55;84.69;98382.59;5110152;27;20047;-59
2022/09/14 07:06:35;;;;;;;13.80;9.18;;;;;;;13.66;84.22;98380.06;5083014;28;20393;-60
2022/09/14 07:09:03;;;;;;;17.15;11.05;;;;;;;13.76;83.67;98383.75;5085449;28;20043;-57
2022/09/14 07:11:29;;;;;;;12.77;8.70;;;;;;;13.62;83.03;98335.97;5087492;28;20039;-59
2022/09/14 07:13:58;;;;;;;12.32;8.35;;;;;;;13.78;82.68;98354.88;5089563;28;20082;-60
2022/09/14 07:16:25;;;;;;;10.30;8.32;;;;;;;14.03;82.62;98380.19;5089077;28;20041;-60
2022/09/14 07:18:56;;;;;;;11.15;8.15;;;;;;;14.05;82.15;98373.06;5088107;28;20039;-59
2022/09/14 07:21:22;;;;;;;11.27;8.32;;;;;;;13.93;81.63;98374.72;5089006;28;20113;-64
2022/09/14 07:23:48;;;;;;;11.73;8.02;;;;;;;13.83;82.37;98378.91;5087415;28;20032;-61
2022/09/14 07:26:17;;;;;;;14.32;10.88;;;;;;;13.87;82.16;98377.78;5103520;27;20040;-62
2022/09/14 07:28:44;;;;;;;12.87;8.50;;;;;;;13.89;82.23;98370.66;5083464;28;20036;-62
2022/09/14 07:31:29;;;;;;;15.15;8.75;;;;;;;13.98;81.82;98370.03;5080663;28;20059;-63
2022/09/14 07:33:57;;;;;;;14.57;8.32;;;;;;;14.00;81.60;98365.53;5114241;27;20040;-57
2022/09/14 07:36:24;;;;;;;11.90;8.23;;;;;;;13.88;81.12;98343.69;5086804;28;20043;-60
2022/09/14 07:38:50;;;;;;;12.43;7.95;;;;;;;14.02;80.92;98360.22;5087842;28;20039;-59
2022/09/14 07:41:16;;;;;;;11.85;8.52;;;;;;;14.00;80.64;98355.09;5082780;28;20072;-58
2022/09/14 07:43:41;;;;;;;10.82;8.10;;;;;;;14.04;80.58;98353.91;5086624;28;20125;-58
2022/09/14 07:46:07;;;;;;;12.02;8.48;;;;;;;13.96;80.58;98341.41;5091103;28;20043;-57
2022/09/14 07:48:34;;;;;;;13.40;8.50;;;;;;;14.11;80.66;98360.41;5088941;28;20063;-60
2022/09/14 07:51:01;;;;;;;12.77;8.70;;;;;;;13.99;80.73;98348.19;5068273;28;20048;-61
2022/09/14 07:53:27;;;;;;;16.23;8.80;;;;;;;14.05;80.85;98371.28;5085566;28;20130;-62
2022/09/14 07:55:53;;;;;;;14.32;10.15;;;;;;;13.94;81.33;98360.72;5087513;28;20062;-64
2022/09/14 07:58:19;;;;;;;12.13;9.00;;;;;;;13.88;81.57;98359.38;5081308;28;20515;-60
2022/09/14 08:00:45;;;;;;;12.52;9.02;;;;;;;13.96;81.55;98358.88;5087252;28;20055;-61
2022/09/14 08:03:10;;;;;;;16.55;9.98;;;;;;;14.01;81.61;98359.38;5088092;28;20127;-60
2022/09/14 08:05:36;;;;;;;15.57;10.20;;;;;;;14.02;82.01;98360.22;5087822;28;20078;-63
2022/09/14 08:08:02;;;;;;;17.67;10.75;;;;;;;14.06;82.13;98359.06;5089231;28;20063;-67
2022/09/14 08:10:28;;;;;;;16.00;11.65;;;;;;;14.07;82.47;98358.97;5089510;28;20036;-64
2022/09/14 08:12:55;;;;;;;16.85;10.90;;;;;;;14.17;82.14;98357.38;5084967;28;20067;-67
2022/09/14 08:15:22;;;;;;;17.05;12.07;;;;;;;14.12;82.40;98335.94;5074171;28;20691;-67
2022/09/14 08:17:48;;;;;;;17.92;12.23;;;;;;;14.31;82.46;98351.16;5080689;28;20819;-68
2022/09/14 08:20:15;;;;;;;17.33;11.52;;;;;;;14.28;82.63;98365.31;5072570;28;20134;-61
2022/09/14 08:22:43;;;;;;;16.20;11.23;;;;;;;14.24;82.87;98334.22;5097458;28;20044;-64
2022/09/14 08:25:10;;;;;;;15.45;11.88;;;;;;;14.37;82.80;98333.28;5084477;28;20396;-66
2022/09/14 08:27:37;;;;;;;16.17;11.68;;;;;;;14.46;83.03;98346.66;5088626;28;20123;-65
2022/09/14 08:30:04;;;;;;;18.23;12.68;;;;;;;14.52;83.02;98347.06;5089001;28;20075;-60
2022/09/14 08:32:30;;;;;;;18.15;13.18;;;;;;;14.50;83.05;98340.28;5087261;28;20051;-62
2022/09/14 08:34:57;;;;;;;19.48;13.05;;;;;;;14.44;83.56;98330.25;5088878;28;20093;-60
2022/09/14 08:37:23;;;;;;;22.30;13.23;;;;;;;14.52;83.54;98346.22;5071106;28;20062;-61
2022/09/14 08:39:48;;;;;;;19.08;13.13;;;;;;;14.68;83.53;98344.16;5087680;28;20059;-61
2022/09/14 08:42:17;;;;;;;28.30;17.33;;;;;;;14.91;83.67;98350.34;5088322;28;20044;-60
2022/09/14 08:44:53;;;;;;;17.60;12.75;;;;;;;15.14;82.92;98345.09;5086471;28;20157;-62
2022/09/14 08:47:21;;;;;;;21.33;12.18;;;;;;;15.33;81.75;98347.19;5088407;28;20109;-60
2022/09/14 08:50:05;;;;;;;29.20;18.33;;;;;;;15.52;81.21;98339.63;5083806;28;20040;-61
2022/09/14 08:52:46;;;;;;;17.88;10.90;;;;;;;15.52;80.31;98338.78;5086059;28;20040;-61
2022/09/14 08:55:17;;;;;;;21.13;13.43;;;;;;;15.37;80.30;98335.53;5086413;28;20094;-62
2022/09/14 08:57:56;;;;;;;17.40;11.50;;;;;;;15.33;80.20;98331.47;5085574;28;20039;-62
2022/09/14 09:00:24;;;;;;;16.33;11.57;;;;;;;15.32;79.31;98311.47;5086122;28;20489;-63
2022/09/14 09:03:28;;;;;;;19.97;11.77;;;;;;;15.43;79.01;98337.69;5070389;28;20047;-61
2022/09/14 09:06:01;;;;;;;16.35;11.38;;;;;;;15.34;78.70;98342.75;5090424;28;20116;-65
2022/09/14 09:08:30;;;;;;;15.90;10.95;;;;;;;15.28;79.08;98338.84;5079841;28;20050;-61
2022/09/14 09:10:58;;;;;;;15.20;11.73;;;;;;;15.44;78.72;98334.09;5072426;28;20065;-62
2022/09/14 09:13:27;;;;;;;16.67;10.90;;;;;;;15.46;78.21;98339.22;5046628;28;20048;-63
2022/09/14 09:15:59;;;;;;;16.33;11.05;;;;;;;15.38;78.00;98336.34;5072902;28;20082;-63
2022/09/14 09:18:48;;;;;;;14.68;10.98;;;;;;;15.32;77.93;98337.66;5080808;28;20032;-66
2022/09/14 09:21:25;;;;;;;14.15;10.27;;;;;;;15.33;77.82;98336.72;5111940;27;20036;-61
2022/09/14 09:23:54;;;;;;;15.88;10.52;;;;;;;15.36;77.84;98333.84;5089450;28;20052;-60
2022/09/14 09:26:28;;;;;;;16.08;9.50;;;;;;;15.52;76.93;98333.56;5088029;28;20482;-62
2022/09/14 09:28:57;;;;;;;10.55;8.77;;;;;;;15.47;76.65;98333.88;5076847;28;20526;-56
2022/09/14 09:31:38;;;;;;;12.18;8.65;;;;;;;15.46;77.08;98332.19;5081543;28;20051;-60
2022/09/14 09:34:29;;;;;;;12.30;9.60;;;;;;;15.36;76.94;98317.28;5087499;28;20047;-61
2022/09/14 09:37:30;;;;;;;12.57;8.38;;;;;;;15.42;76.62;98322.06;5070732;28;20046;-60
2022/09/14 09:39:56;;;;;;;11.30;8.15;;;;;;;15.31;76.50;98293.25;5088297;28;20384;-60
2022/09/14 09:42:24;;;;;;;14.93;8.68;;;;;;;15.52;76.16;98295.09;5085900;28;20146;-57
2022/09/14 09:45:02;;;;;;;14.63;8.35;;;;;;;15.89;75.80;98315.84;5090183;28;20068;-63
2022/09/14 09:47:34;;;;;;;11.70;9.20;;;;;;;15.80;75.74;98327.88;5089400;28;20048;-63
2022/09/14 09:50:04;;;;;;;11.77;8.85;;;;;;;15.86;75.45;98326.59;5090523;28;20541;-61
2022/09/14 09:52:30;;;;;;;14.20;10.00;;;;;;;15.91;75.21;98327.84;5124116;27;20143;-62
2022/09/14 09:54:57;;;;;;;11.38;8.80;;;;;;;15.67;75.21;98291.31;5089884;28;20139;-59
2022/09/14 09:57:34;;;;;;;13.80;10.30;;;;;;;15.82;75.26;98323.34;5090757;28;20469;-60
2022/09/14 10:00:12;;;;;;;12.98;8.45;;;;;;;15.87;74.91;98323.81;5104099;28;20075;-60
2022/09/14 10:02:39;;;;;;;14.00;9.80;;;;;;;15.86;74.44;98322.16;5074624;28;20048;-59
2022/09/14 10:05:08;;;;;;;16.35;9.25;;;;;;;15.80;74.75;98333.13;5091414;28;20094;-60
2022/09/14 10:07:38;;;;;;;11.27;9.32;;;;;;;15.70;74.65;98326.09;5091354;28;20040;-59
2022/09/14 10:10:08;;;;;;;18.50;10.90;;;;;;;15.65;75.33;98327.25;5090391;28;20036;-58
2022/09/14 10:12:35;;;;;;;16.42;12.10;;;;;;;15.55;75.41;98325.44;5086973;28;20150;-59
2022/09/14 10:15:24;;;;;;;13.20;10.18;;;;;;;15.43;75.87;98321.97;5098722;28;20051;-61
2022/09/14 10:18:04;;;;;;;13.93;9.68;;;;;;;15.27;76.23;98319.66;5085521;28;20524;-60
2022/09/14 10:20:30;;;;;;;13.32;9.25;;;;;;;15.16;76.70;98329.28;5089156;28;20043;-59
2022/09/14 10:23:17;;;;;;;14.18;10.05;;;;;;;15.12;77.57;98320.81;5090690;28;20036;-61
2022/09/14 10:25:48;;;;;;;11.40;9.20;;;;;;;15.00;78.22;98331.34;5089255;28;20048;-61
2022/09/14 10:28:31;;;;;;;12.07;8.30;;;;;;;14.73;78.63;98303.66;5089925;28;20032;-61
2022/09/14 10:31:04;;;;;;;12.43;8.13;;;;;;;14.65;79.92;98337.41;5086526;28;20063;-59
2022/09/14 10:33:29;;;;;;;26.30;9.95;;;;;;;14.43;80.51;98307.66;5086048;28;20042;-59
2022/09/14 10:35:55;;;;;;;15.02;9.95;;;;;;;14.65;80.90;98339.16;5089444;28;20565;-59
2022/09/14 10:38:34;;;;;;;13.05;9.23;;;;;;;14.65;81.69;98341.78;5088556;28;20503;-59
2022/09/14 10:41:21;;;;;;;11.38;8.57;;;;;;;14.66;82.08;98331.19;5114430;27;20130;-59
2022/09/14 10:44:18;;;;;;;14.20;9.15;;;;;;;14.64;82.62;98327.88;5086064;28;20044;-60
2022/09/14 10:46:58;;;;;;;13.30;9.32;;;;;;;14.67;82.92;98339.88;5086795;28;20070;-60
2022/09/14 10:49:36;;;;;;;11.88;8.40;;;;;;;14.56;84.07;98339.81;5087004;28;20036;-62
2022/09/14 10:52:15;;;;;;;13.35;9.13;;;;;;;14.49;84.85;98330.75;5089611;28;20530;-61
2022/09/14 10:54:59;;;;;;;11.95;8.82;;;;;;;14.51;85.28;98340.16;5071804;28;20054;-61
2022/09/14 10:57:46;;;;;;;15.93;10.00;;;;;;;14.44;86.26;98340.72;5087918;28;20051;-61
2022/09/14 11:00:17;;;;;;;13.57;8.95;;;;;;;14.45;86.54;98339.75;5090277;28;20050;-61
2022/09/14 11:03:32;;;;;;;17.13;10.30;;;;;;;14.50;87.13;98343.69;5089431;28;20633;-60
2022/09/14 11:06:06;;;;;;;18.83;9.63;;;;;;;14.49;87.08;98342.06;5072421;28;20110;-61
2022/09/14 11:08:45;;;;;;;14.70;9.20;;;;;;;14.51;87.00;98336.69;5084582;28;20055;-61
2022/09/14 11:11:26;;;;;;;13.70;9.88;;;;;;;14.62;87.25;98347.22;5085735;28;20048;-61
2022/09/14 11:14:01;;;;;;;13.70;9.63;;;;;;;14.80;86.90;98345.91;5076803;28;20520;-62
2022/09/14 11:16:43;;;;;;;14.68;9.50;;;;;;;15.02;86.24;98343.38;5070359;28;20033;-62
2022/09/14 11:19:36;;;;;;;14.93;11.00;;;;;;;15.26;85.44;98335.50;5077497;28;20461;-61
2022/09/14 11:22:09;;;;;;;12.95;9.15;;;;;;;15.28;84.76;98336.22;5090168;28;20036;-60
2022/09/14 11:24:39;;;;;;;16.23;10.68;;;;;;;15.25;84.83;98334.66;5089078;28;20055;-61
2022/09/14 11:27:09;;;;;;;11.73;8.55;;;;;;;15.31;84.45;98335.97;5089382;28;20099;-62
2022/09/14 11:29:46;;;;;;;13.95;8.43;;;;;;;15.30;83.47;98331.69;5076065;28;20041;-60
2022/09/14 11:32:21;;;;;;;12.95;8.63;;;;;;;15.30;83.32;98330.84;5068750;28;20040;-60
2022/09/14 11:34:59;;;;;;;10.93;8.50;;;;;;;15.44;82.80;98323.63;5111143;27;20526;-60
2022/09/14 11:37:54;;;;;;;11.15;7.25;;;;;;;15.61;81.14;98322.38;5088964;28;20036;-61
2022/09/14 11:40:30;;;;;;;11.65;6.72;;;;;;;15.84;79.28;98289.16;5089257;28;20054;-61
2022/09/14 11:43:10;;;;;;;9.88;7.53;;;;;;;16.27;78.19;98333.81;5089780;28;20036;-59